sensor_id;sensor_type;location;lat;lon;timestamp;P1;durP1;ratioP1;P2;durP2;ratioP2
31043;SDS011;17710;52.520;13.352;2023-08-07T00:00:05;2.30;;;1.90;;
31043;SDS011;17710;52.520;13.352;2023-08-07T00:02:34;2.20;;;2.00;;
31043;SDS011;17710;52.520;13.352;2023-08-07T00:05:01;4.05;;;1.90;;
31043;SDS011;17710;52.520;13.352;2023-08-07T00:07:27;5.97;;;2.20;;
31043;SDS011;17710;52.520;13.352;2023-08-07T00:09:55;4.65;;;2.17;;
31043;SDS011;17710;52.520;13.352;2023-08-07T00:12:21;6.53;;;2.40;;
31043;SDS011;17710;52.520;13.352;2023-08-07T00:14:49;4.05;;;2.60;;
31043;SDS011;17710;52.520;13.352;2023-08-07T00:17:16;8.25;;;2.88;;
31043;SDS011;17710;52.520;13.352;2023-08-07T00:19:42;7.95;;;2.83;;
31043;SDS011;17710;52.520;13.352;2023-08-07T00:22:09;9.55;;;3.25;;
31043;SDS011;17710;52.520;13.352;2023-08-07T00:24:35;5.10;;;3.13;;
31043;SDS011;17710;52.520;13.352;2023-08-07T00:27:03;9.05;;;4.07;;
31043;SDS011;17710;52.520;13.352;2023-08-07T00:29:31;6.68;;;2.63;;
31043;SDS011;17710;52.520;13.352;2023-08-07T00:31:58;7.97;;;3.55;;
31043;SDS011;17710;52.520;13.352;2023-08-07T00:34:24;5.35;;;3.30;;
31043;SDS011;17710;52.520;13.352;2023-08-07T00:36:51;5.32;;;2.53;;
31043;SDS011;17710;52.520;13.352;2023-08-07T00:39:17;10.55;;;2.90;;
31043;SDS011;17710;52.520;13.352;2023-08-07T00:41:44;6.05;;;2.80;;
31043;SDS011;17710;52.520;13.352;2023-08-07T00:44:12;6.03;;;3.20;;
31043;SDS011;17710;52.520;13.352;2023-08-07T00:46:38;6.82;;;2.85;;
31043;SDS011;17710;52.520;13.352;2023-08-07T00:49:05;5.60;;;3.15;;
31043;SDS011;17710;52.520;13.352;2023-08-07T00:51:32;7.72;;;2.97;;
31043;SDS011;17710;52.520;13.352;2023-08-07T00:53:59;4.65;;;2.38;;
31043;SDS011;17710;52.520;13.352;2023-08-07T00:56:29;7.00;;;2.97;;
31043;SDS011;17710;52.520;13.352;2023-08-07T00:58:57;4.78;;;2.80;;
31043;SDS011;17710;52.520;13.352;2023-08-07T01:01:25;9.77;;;2.58;;
31043;SDS011;17710;52.520;13.352;2023-08-07T01:03:52;4.82;;;2.75;;
31043;SDS011;17710;52.520;13.352;2023-08-07T01:06:19;8.93;;;3.00;;
31043;SDS011;17710;52.520;13.352;2023-08-07T01:08:45;9.00;;;2.58;;
31043;SDS011;17710;52.520;13.352;2023-08-07T01:11:18;7.70;;;2.78;;
31043;SDS011;17710;52.520;13.352;2023-08-07T01:13:51;5.82;;;2.42;;
31043;SDS011;17710;52.520;13.352;2023-08-07T01:16:29;8.65;;;2.40;;
31043;SDS011;17710;52.520;13.352;2023-08-07T01:19:00;4.28;;;2.28;;
31043;SDS011;17710;52.520;13.352;2023-08-07T01:21:28;6.43;;;2.85;;
31043;SDS011;17710;52.520;13.352;2023-08-07T01:23:55;5.50;;;2.80;;
31043;SDS011;17710;52.520;13.352;2023-08-07T01:26:22;4.00;;;2.50;;
31043;SDS011;17710;52.520;13.352;2023-08-07T01:28:50;6.90;;;2.40;;
31043;SDS011;17710;52.520;13.352;2023-08-07T01:31:23;7.43;;;2.75;;
31043;SDS011;17710;52.520;13.352;2023-08-07T01:33:53;15.30;;;2.70;;
31043;SDS011;17710;52.520;13.352;2023-08-07T01:36:25;8.73;;;2.38;;
31043;SDS011;17710;52.520;13.352;2023-08-07T01:38:55;9.98;;;3.38;;
31043;SDS011;17710;52.520;13.352;2023-08-07T01:41:23;4.40;;;2.35;;
31043;SDS011;17710;52.520;13.352;2023-08-07T01:43:50;5.47;;;2.90;;
31043;SDS011;17710;52.520;13.352;2023-08-07T01:46:17;7.63;;;3.08;;
31043;SDS011;17710;52.520;13.352;2023-08-07T01:48:43;7.45;;;2.30;;
31043;SDS011;17710;52.520;13.352;2023-08-07T01:51:10;8.30;;;3.35;;
31043;SDS011;17710;52.520;13.352;2023-08-07T01:53:36;4.32;;;2.40;;
31043;SDS011;17710;52.520;13.352;2023-08-07T01:56:04;5.65;;;2.85;;
31043;SDS011;17710;52.520;13.352;2023-08-07T01:58:30;9.55;;;2.90;;
31043;SDS011;17710;52.520;13.352;2023-08-07T02:00:56;7.25;;;2.78;;
31043;SDS011;17710;52.520;13.352;2023-08-07T02:03:23;4.55;;;2.72;;
31043;SDS011;17710;52.520;13.352;2023-08-07T02:05:49;4.72;;;3.03;;
31043;SDS011;17710;52.520;13.352;2023-08-07T02:08:16;5.88;;;2.63;;
31043;SDS011;17710;52.520;13.352;2023-08-07T02:10:42;9.73;;;3.00;;
31043;SDS011;17710;52.520;13.352;2023-08-07T02:13:10;10.07;;;2.97;;
31043;SDS011;17710;52.520;13.352;2023-08-07T02:15:36;9.93;;;3.75;;
31043;SDS011;17710;52.520;13.352;2023-08-07T02:18:03;4.20;;;2.92;;
31043;SDS011;17710;52.520;13.352;2023-08-07T02:20:29;6.07;;;3.05;;
31043;SDS011;17710;52.520;13.352;2023-08-07T02:22:56;4.78;;;2.95;;
31043;SDS011;17710;52.520;13.352;2023-08-07T02:25:23;9.02;;;3.60;;
31043;SDS011;17710;52.520;13.352;2023-08-07T02:27:49;10.15;;;3.28;;
31043;SDS011;17710;52.520;13.352;2023-08-07T02:30:17;5.05;;;3.33;;
31043;SDS011;17710;52.520;13.352;2023-08-07T02:32:43;8.57;;;3.30;;
31043;SDS011;17710;52.520;13.352;2023-08-07T02:35:11;5.38;;;3.40;;
31043;SDS011;17710;52.520;13.352;2023-08-07T02:37:37;6.15;;;3.42;;
31043;SDS011;17710;52.520;13.352;2023-08-07T02:40:04;7.05;;;3.20;;
31043;SDS011;17710;52.520;13.352;2023-08-07T02:42:31;9.65;;;3.88;;
31043;SDS011;17710;52.520;13.352;2023-08-07T02:44:57;5.63;;;3.67;;
31043;SDS011;17710;52.520;13.352;2023-08-07T02:47:25;12.40;;;4.07;;
31043;SDS011;17710;52.520;13.352;2023-08-07T02:49:51;19.85;;;4.05;;
31043;SDS011;17710;52.520;13.352;2023-08-07T02:52:19;7.32;;;3.78;;
31043;SDS011;17710;52.520;13.352;2023-08-07T02:54:45;15.68;;;3.90;;
31043;SDS011;17710;52.520;13.352;2023-08-07T02:57:12;7.18;;;4.03;;
31043;SDS011;17710;52.520;13.352;2023-08-07T02:59:38;12.25;;;4.45;;
31043;SDS011;17710;52.520;13.352;2023-08-07T03:02:05;9.45;;;4.47;;
31043;SDS011;17710;52.520;13.352;2023-08-07T03:04:32;5.13;;;3.85;;
31043;SDS011;17710;52.520;13.352;2023-08-07T03:06:59;7.22;;;3.90;;
31043;SDS011;17710;52.520;13.352;2023-08-07T03:09:25;8.15;;;4.15;;
31043;SDS011;17710;52.520;13.352;2023-08-07T03:11:52;8.00;;;4.30;;
31043;SDS011;17710;52.520;13.352;2023-08-07T03:14:18;8.30;;;4.07;;
31043;SDS011;17710;52.520;13.352;2023-08-07T03:16:45;11.85;;;4.47;;
31043;SDS011;17710;52.520;13.352;2023-08-07T03:19:11;8.93;;;4.70;;
31043;SDS011;17710;52.520;13.352;2023-08-07T03:21:39;8.07;;;3.75;;
31043;SDS011;17710;52.520;13.352;2023-08-07T03:24:05;8.88;;;4.05;;
31043;SDS011;17710;52.520;13.352;2023-08-07T03:26:33;8.10;;;4.32;;
31043;SDS011;17710;52.520;13.352;2023-08-07T03:28:59;9.10;;;3.97;;
31043;SDS011;17710;52.520;13.352;2023-08-07T03:31:25;6.70;;;4.47;;
31043;SDS011;17710;52.520;13.352;2023-08-07T03:33:52;8.48;;;4.75;;
31043;SDS011;17710;52.520;13.352;2023-08-07T03:36:18;12.73;;;4.60;;
31043;SDS011;17710;52.520;13.352;2023-08-07T03:38:46;10.02;;;4.22;;
31043;SDS011;17710;52.520;13.352;2023-08-07T03:41:12;9.82;;;4.82;;
31043;SDS011;17710;52.520;13.352;2023-08-07T03:43:39;13.00;;;4.72;;
31043;SDS011;17710;52.520;13.352;2023-08-07T03:46:05;5.95;;;4.13;;
31043;SDS011;17710;52.520;13.352;2023-08-07T03:48:31;8.23;;;4.75;;
31043;SDS011;17710;52.520;13.352;2023-08-07T03:51:04;9.75;;;4.72;;
31043;SDS011;17710;52.520;13.352;2023-08-07T03:53:33;10.80;;;5.28;;
31043;SDS011;17710;52.520;13.352;2023-08-07T03:56:00;10.48;;;4.90;;
31043;SDS011;17710;52.520;13.352;2023-08-07T03:58:27;11.70;;;4.93;;
31043;SDS011;17710;52.520;13.352;2023-08-07T04:00:53;7.45;;;4.57;;
31043;SDS011;17710;52.520;13.352;2023-08-07T04:03:19;6.90;;;4.60;;
31043;SDS011;17710;52.520;13.352;2023-08-07T04:05:46;9.75;;;4.68;;
31043;SDS011;17710;52.520;13.352;2023-08-07T04:08:12;12.93;;;4.45;;
31043;SDS011;17710;52.520;13.352;2023-08-07T04:10:39;6.28;;;4.32;;
31043;SDS011;17710;52.520;13.352;2023-08-07T04:13:06;8.32;;;4.40;;
31043;SDS011;17710;52.520;13.352;2023-08-07T04:15:33;13.30;;;5.30;;
31043;SDS011;17710;52.520;13.352;2023-08-07T04:17:59;8.90;;;4.47;;
31043;SDS011;17710;52.520;13.352;2023-08-07T04:20:26;11.10;;;4.35;;
31043;SDS011;17710;52.520;13.352;2023-08-07T04:22:52;8.45;;;4.55;;
31043;SDS011;17710;52.520;13.352;2023-08-07T04:25:18;8.20;;;4.43;;
31043;SDS011;17710;52.520;13.352;2023-08-07T04:27:45;8.30;;;4.13;;
31043;SDS011;17710;52.520;13.352;2023-08-07T04:30:13;11.15;;;4.50;;
31043;SDS011;17710;52.520;13.352;2023-08-07T04:32:39;11.82;;;4.93;;
31043;SDS011;17710;52.520;13.352;2023-08-07T04:35:06;12.02;;;4.10;;
31043;SDS011;17710;52.520;13.352;2023-08-07T04:37:33;7.00;;;3.65;;
31043;SDS011;17710;52.520;13.352;2023-08-07T04:39:59;7.60;;;3.75;;
31043;SDS011;17710;52.520;13.352;2023-08-07T04:42:26;9.52;;;3.85;;
31043;SDS011;17710;52.520;13.352;2023-08-07T04:44:52;11.25;;;4.03;;
31043;SDS011;17710;52.520;13.352;2023-08-07T04:47:20;5.65;;;4.18;;
31043;SDS011;17710;52.520;13.352;2023-08-07T04:49:46;8.32;;;3.60;;
31043;SDS011;17710;52.520;13.352;2023-08-07T04:52:12;8.48;;;3.60;;
31043;SDS011;17710;52.520;13.352;2023-08-07T04:54:39;9.02;;;3.60;;
31043;SDS011;17710;52.520;13.352;2023-08-07T04:57:05;4.60;;;3.70;;
31043;SDS011;17710;52.520;13.352;2023-08-07T04:59:31;7.18;;;3.58;;
31043;SDS011;17710;52.520;13.352;2023-08-07T05:01:58;7.82;;;3.90;;
31043;SDS011;17710;52.520;13.352;2023-08-07T05:04:25;9.68;;;3.50;;
31043;SDS011;17710;52.520;13.352;2023-08-07T05:06:52;7.70;;;2.90;;
31043;SDS011;17710;52.520;13.352;2023-08-07T05:09:18;6.72;;;3.28;;
31043;SDS011;17710;52.520;13.352;2023-08-07T05:11:44;5.07;;;2.95;;
31043;SDS011;17710;52.520;13.352;2023-08-07T05:14:11;7.32;;;3.42;;
31043;SDS011;17710;52.520;13.352;2023-08-07T05:16:37;6.25;;;3.13;;
31043;SDS011;17710;52.520;13.352;2023-08-07T05:19:04;6.80;;;3.03;;
31043;SDS011;17710;52.520;13.352;2023-08-07T05:21:31;3.95;;;2.95;;
31043;SDS011;17710;52.520;13.352;2023-08-07T05:23:58;8.35;;;3.17;;
31043;SDS011;17710;52.520;13.352;2023-08-07T05:26:24;7.88;;;3.40;;
31043;SDS011;17710;52.520;13.352;2023-08-07T05:28:50;7.30;;;2.95;;
31043;SDS011;17710;52.520;13.352;2023-08-07T05:31:17;3.92;;;2.53;;
31043;SDS011;17710;52.520;13.352;2023-08-07T05:33:43;9.50;;;3.28;;
31043;SDS011;17710;52.520;13.352;2023-08-07T05:36:09;6.38;;;3.08;;
31043;SDS011;17710;52.520;13.352;2023-08-07T05:38:37;10.13;;;3.00;;
31043;SDS011;17710;52.520;13.352;2023-08-07T05:41:03;7.20;;;2.80;;
31043;SDS011;17710;52.520;13.352;2023-08-07T05:43:30;6.88;;;2.75;;
31043;SDS011;17710;52.520;13.352;2023-08-07T05:45:56;6.20;;;2.88;;
31043;SDS011;17710;52.520;13.352;2023-08-07T05:48:22;5.07;;;2.80;;
31043;SDS011;17710;52.520;13.352;2023-08-07T05:50:49;8.00;;;2.75;;
31043;SDS011;17710;52.520;13.352;2023-08-07T05:53:17;8.85;;;3.08;;
31043;SDS011;17710;52.520;13.352;2023-08-07T05:55:45;4.30;;;2.72;;
31043;SDS011;17710;52.520;13.352;2023-08-07T05:58:11;7.13;;;2.58;;
31043;SDS011;17710;52.520;13.352;2023-08-07T06:00:37;4.80;;;2.42;;
31043;SDS011;17710;52.520;13.352;2023-08-07T06:03:04;5.53;;;3.00;;
31043;SDS011;17710;52.520;13.352;2023-08-07T06:05:30;5.28;;;3.05;;
31043;SDS011;17710;52.520;13.352;2023-08-07T06:07:56;12.93;;;2.65;;
31043;SDS011;17710;52.520;13.352;2023-08-07T06:10:23;7.03;;;2.75;;
31043;SDS011;17710;52.520;13.352;2023-08-07T06:12:51;3.67;;;2.20;;
31043;SDS011;17710;52.520;13.352;2023-08-07T06:15:17;4.97;;;2.55;;
31043;SDS011;17710;52.520;13.352;2023-08-07T06:17:44;4.13;;;2.47;;
31043;SDS011;17710;52.520;13.352;2023-08-07T06:20:10;2.72;;;2.53;;
31043;SDS011;17710;52.520;13.352;2023-08-07T06:22:39;9.68;;;2.53;;
31043;SDS011;17710;52.520;13.352;2023-08-07T06:25:06;4.28;;;2.50;;
31043;SDS011;17710;52.520;13.352;2023-08-07T06:27:33;5.60;;;2.50;;
31043;SDS011;17710;52.520;13.352;2023-08-07T06:30:01;6.70;;;2.30;;
31043;SDS011;17710;52.520;13.352;2023-08-07T06:32:27;10.52;;;2.33;;
31043;SDS011;17710;52.520;13.352;2023-08-07T06:34:54;5.38;;;2.33;;
31043;SDS011;17710;52.520;13.352;2023-08-07T06:37:20;3.40;;;2.05;;
31043;SDS011;17710;52.520;13.352;2023-08-07T06:39:46;9.75;;;1.98;;
31043;SDS011;17710;52.520;13.352;2023-08-07T06:42:13;4.03;;;1.95;;
31043;SDS011;17710;52.520;13.352;2023-08-07T06:44:39;5.00;;;1.95;;
31043;SDS011;17710;52.520;13.352;2023-08-07T06:47:07;8.90;;;3.03;;
31043;SDS011;17710;52.520;13.352;2023-08-07T06:49:33;5.72;;;2.00;;
31043;SDS011;17710;52.520;13.352;2023-08-07T06:52:00;4.30;;;2.15;;
31043;SDS011;17710;52.520;13.352;2023-08-07T06:54:27;8.57;;;1.95;;
31043;SDS011;17710;52.520;13.352;2023-08-07T06:56:53;8.18;;;1.88;;
31043;SDS011;17710;52.520;13.352;2023-08-07T06:59:19;3.85;;;1.70;;
31043;SDS011;17710;52.520;13.352;2023-08-07T07:01:46;6.07;;;1.70;;
31043;SDS011;17710;52.520;13.352;2023-08-07T07:04:14;5.85;;;1.90;;
31043;SDS011;17710;52.520;13.352;2023-08-07T07:06:40;3.35;;;1.52;;
31043;SDS011;17710;52.520;13.352;2023-08-07T07:09:07;4.65;;;1.60;;
31043;SDS011;17710;52.520;13.352;2023-08-07T07:11:33;20.20;;;2.92;;
31043;SDS011;17710;52.520;13.352;2023-08-07T07:14:00;5.88;;;1.95;;
31043;SDS011;17710;52.520;13.352;2023-08-07T07:16:26;8.90;;;2.67;;
31043;SDS011;17710;52.520;13.352;2023-08-07T07:18:53;7.65;;;1.98;;
31043;SDS011;17710;52.520;13.352;2023-08-07T07:21:22;4.30;;;1.77;;
31043;SDS011;17710;52.520;13.352;2023-08-07T07:23:48;3.83;;;1.75;;
31043;SDS011;17710;52.520;13.352;2023-08-07T07:26:15;5.72;;;1.40;;
31043;SDS011;17710;52.520;13.352;2023-08-07T07:28:41;4.20;;;1.60;;
31043;SDS011;17710;52.520;13.352;2023-08-07T07:31:08;5.35;;;2.22;;
31043;SDS011;17710;52.520;13.352;2023-08-07T07:33:37;4.47;;;1.40;;
31043;SDS011;17710;52.520;13.352;2023-08-07T07:36:04;5.20;;;1.83;;
31043;SDS011;17710;52.520;13.352;2023-08-07T07:38:32;6.72;;;1.80;;
31043;SDS011;17710;52.520;13.352;2023-08-07T07:40:58;1.50;;;1.13;;
31043;SDS011;17710;52.520;13.352;2023-08-07T07:43:25;3.00;;;1.40;;
31043;SDS011;17710;52.520;13.352;2023-08-07T07:45:52;5.55;;;1.48;;
31043;SDS011;17710;52.520;13.352;2023-08-07T07:48:18;5.10;;;2.25;;
31043;SDS011;17710;52.520;13.352;2023-08-07T07:50:44;3.42;;;1.45;;
31043;SDS011;17710;52.520;13.352;2023-08-07T07:53:11;6.03;;;1.50;;
31043;SDS011;17710;52.520;13.352;2023-08-07T07:55:38;4.53;;;1.50;;
31043;SDS011;17710;52.520;13.352;2023-08-07T07:58:05;4.45;;;1.77;;
31043;SDS011;17710;52.520;13.352;2023-08-07T08:00:31;3.72;;;1.90;;
31043;SDS011;17710;52.520;13.352;2023-08-07T08:02:57;3.40;;;1.40;;
31043;SDS011;17710;52.520;13.352;2023-08-07T08:05:24;2.05;;;1.30;;
31043;SDS011;17710;52.520;13.352;2023-08-07T08:07:51;2.83;;;1.40;;
31043;SDS011;17710;52.520;13.352;2023-08-07T08:10:17;1.65;;;1.40;;
31043;SDS011;17710;52.520;13.352;2023-08-07T08:12:44;1.92;;;1.30;;
31043;SDS011;17710;52.520;13.352;2023-08-07T08:15:11;6.68;;;1.77;;
31043;SDS011;17710;52.520;13.352;2023-08-07T08:17:37;2.95;;;1.30;;
31043;SDS011;17710;52.520;13.352;2023-08-07T08:20:04;3.58;;;1.85;;
31043;SDS011;17710;52.520;13.352;2023-08-07T08:22:31;3.50;;;1.60;;
31043;SDS011;17710;52.520;13.352;2023-08-07T08:24:58;3.17;;;1.23;;
31043;SDS011;17710;52.520;13.352;2023-08-07T08:27:25;6.95;;;1.70;;
31043;SDS011;17710;52.520;13.352;2023-08-07T08:29:52;5.50;;;2.00;;
31043;SDS011;17710;52.520;13.352;2023-08-07T08:32:19;4.32;;;1.70;;
31043;SDS011;17710;52.520;13.352;2023-08-07T08:34:45;8.00;;;1.75;;
31043;SDS011;17710;52.520;13.352;2023-08-07T08:37:14;3.65;;;1.77;;
31043;SDS011;17710;52.520;13.352;2023-08-07T08:39:40;3.95;;;1.58;;
31043;SDS011;17710;52.520;13.352;2023-08-07T08:42:07;5.07;;;3.50;;
31043;SDS011;17710;52.520;13.352;2023-08-07T08:44:37;3.03;;;1.50;;
31043;SDS011;17710;52.520;13.352;2023-08-07T08:47:07;3.30;;;1.30;;
31043;SDS011;17710;52.520;13.352;2023-08-07T08:49:35;4.75;;;1.85;;
31043;SDS011;17710;52.520;13.352;2023-08-07T08:52:06;6.38;;;1.55;;
31043;SDS011;17710;52.520;13.352;2023-08-07T08:54:33;3.55;;;1.80;;
31043;SDS011;17710;52.520;13.352;2023-08-07T08:57:00;4.43;;;1.52;;
31043;SDS011;17710;52.520;13.352;2023-08-07T08:59:27;3.38;;;1.60;;
31043;SDS011;17710;52.520;13.352;2023-08-07T09:01:53;7.40;;;1.50;;
31043;SDS011;17710;52.520;13.352;2023-08-07T09:04:21;6.28;;;1.30;;
31043;SDS011;17710;52.520;13.352;2023-08-07T09:06:47;4.72;;;1.30;;
31043;SDS011;17710;52.520;13.352;2023-08-07T09:09:14;4.53;;;1.50;;
31043;SDS011;17710;52.520;13.352;2023-08-07T09:11:43;7.57;;;1.55;;
31043;SDS011;17710;52.520;13.352;2023-08-07T09:14:11;2.45;;;1.70;;
31043;SDS011;17710;52.520;13.352;2023-08-07T09:16:42;5.18;;;1.55;;
31043;SDS011;17710;52.520;13.352;2023-08-07T09:19:09;7.45;;;1.73;;
31043;SDS011;17710;52.520;13.352;2023-08-07T09:21:37;10.85;;;1.90;;
31043;SDS011;17710;52.520;13.352;2023-08-07T09:24:03;4.07;;;1.33;;
31043;SDS011;17710;52.520;13.352;2023-08-07T09:26:31;3.50;;;1.40;;
31043;SDS011;17710;52.520;13.352;2023-08-07T09:28:58;6.43;;;2.13;;
31043;SDS011;17710;52.520;13.352;2023-08-07T09:31:25;4.90;;;1.73;;
31043;SDS011;17710;52.520;13.352;2023-08-07T09:33:52;5.63;;;1.60;;
31043;SDS011;17710;52.520;13.352;2023-08-07T09:36:18;3.83;;;1.45;;
31043;SDS011;17710;52.520;13.352;2023-08-07T09:38:50;5.20;;;1.40;;
31043;SDS011;17710;52.520;13.352;2023-08-07T09:41:17;2.53;;;1.30;;
31043;SDS011;17710;52.520;13.352;2023-08-07T09:43:43;6.68;;;1.20;;
31043;SDS011;17710;52.520;13.352;2023-08-07T09:46:10;6.18;;;1.20;;
31043;SDS011;17710;52.520;13.352;2023-08-07T09:48:39;5.57;;;1.27;;
31043;SDS011;17710;52.520;13.352;2023-08-07T09:51:06;5.47;;;1.20;;
31043;SDS011;17710;52.520;13.352;2023-08-07T09:53:32;2.25;;;1.38;;
31043;SDS011;17710;52.520;13.352;2023-08-07T09:56:00;1.52;;;1.10;;
31043;SDS011;17710;52.520;13.352;2023-08-07T09:58:26;4.63;;;2.13;;
31043;SDS011;17710;52.520;13.352;2023-08-07T10:00:54;6.28;;;1.20;;
31043;SDS011;17710;52.520;13.352;2023-08-07T10:03:24;5.97;;;1.40;;
31043;SDS011;17710;52.520;13.352;2023-08-07T10:05:51;3.03;;;1.10;;
31043;SDS011;17710;52.520;13.352;2023-08-07T10:08:18;4.80;;;1.60;;
31043;SDS011;17710;52.520;13.352;2023-08-07T10:10:44;4.55;;;1.23;;
31043;SDS011;17710;52.520;13.352;2023-08-07T10:13:14;3.55;;;0.82;;
31043;SDS011;17710;52.520;13.352;2023-08-07T10:15:40;4.00;;;1.00;;
31043;SDS011;17710;52.520;13.352;2023-08-07T10:18:07;6.28;;;1.10;;
31043;SDS011;17710;52.520;13.352;2023-08-07T10:20:33;5.63;;;1.20;;
31043;SDS011;17710;52.520;13.352;2023-08-07T10:23:02;5.68;;;1.40;;
31043;SDS011;17710;52.520;13.352;2023-08-07T10:25:32;3.65;;;1.20;;
31043;SDS011;17710;52.520;13.352;2023-08-07T10:28:01;4.95;;;1.60;;
31043;SDS011;17710;52.520;13.352;2023-08-07T10:30:33;3.45;;;1.00;;
31043;SDS011;17710;52.520;13.352;2023-08-07T10:33:00;6.68;;;1.40;;
31043;SDS011;17710;52.520;13.352;2023-08-07T10:35:29;2.17;;;1.00;;
31043;SDS011;17710;52.520;13.352;2023-08-07T10:38:04;4.00;;;1.45;;
31043;SDS011;17710;52.520;13.352;2023-08-07T10:40:32;6.20;;;1.10;;
31043;SDS011;17710;52.520;13.352;2023-08-07T10:42:59;3.22;;;1.00;;
31043;SDS011;17710;52.520;13.352;2023-08-07T10:45:39;1.85;;;0.90;;
31043;SDS011;17710;52.520;13.352;2023-08-07T10:48:05;3.97;;;0.98;;
31043;SDS011;17710;52.520;13.352;2023-08-07T10:50:33;3.83;;;1.23;;
31043;SDS011;17710;52.520;13.352;2023-08-07T10:53:01;4.38;;;1.15;;
31043;SDS011;17710;52.520;13.352;2023-08-07T10:55:30;1.60;;;0.90;;
31043;SDS011;17710;52.520;13.352;2023-08-07T10:57:57;3.35;;;0.82;;
31043;SDS011;17710;52.520;13.352;2023-08-07T11:00:25;5.50;;;1.00;;
31043;SDS011;17710;52.520;13.352;2023-08-07T11:02:54;8.55;;;0.82;;
31043;SDS011;17710;52.520;13.352;2023-08-07T11:05:24;3.08;;;1.10;;
31043;SDS011;17710;52.520;13.352;2023-08-07T11:07:50;2.08;;;0.90;;
31043;SDS011;17710;52.520;13.352;2023-08-07T11:10:19;5.22;;;1.77;;
31043;SDS011;17710;52.520;13.352;2023-08-07T11:12:45;4.13;;;1.40;;
31043;SDS011;17710;52.520;13.352;2023-08-07T11:15:12;2.70;;;1.15;;
31043;SDS011;17710;52.520;13.352;2023-08-07T11:17:39;5.65;;;1.15;;
31043;SDS011;17710;52.520;13.352;2023-08-07T11:20:08;10.15;;;1.55;;
31043;SDS011;17710;52.520;13.352;2023-08-07T11:22:35;5.72;;;1.35;;
31043;SDS011;17710;52.520;13.352;2023-08-07T11:25:04;1.50;;;1.10;;
31043;SDS011;17710;52.520;13.352;2023-08-07T11:27:34;6.68;;;1.50;;
31043;SDS011;17710;52.520;13.352;2023-08-07T11:30:01;3.28;;;1.50;;
31043;SDS011;17710;52.520;13.352;2023-08-07T11:32:29;6.93;;;1.83;;
31043;SDS011;17710;52.520;13.352;2023-08-07T11:34:56;4.30;;;1.48;;
31043;SDS011;17710;52.520;13.352;2023-08-07T11:37:24;2.55;;;1.30;;
31043;SDS011;17710;52.520;13.352;2023-08-07T11:39:50;4.03;;;1.40;;
31043;SDS011;17710;52.520;13.352;2023-08-07T11:42:16;4.07;;;1.73;;
31043;SDS011;17710;52.520;13.352;2023-08-07T11:44:43;6.55;;;1.60;;
31043;SDS011;17710;52.520;13.352;2023-08-07T11:47:09;5.63;;;1.85;;
31043;SDS011;17710;52.520;13.352;2023-08-07T11:49:36;5.72;;;1.50;;
31043;SDS011;17710;52.520;13.352;2023-08-07T11:52:03;6.57;;;1.35;;
31043;SDS011;17710;52.520;13.352;2023-08-07T11:54:31;9.75;;;1.45;;
31043;SDS011;17710;52.520;13.352;2023-08-07T11:56:58;12.43;;;6.20;;
31043;SDS011;17710;52.520;13.352;2023-08-07T11:59:25;4.85;;;1.65;;
31043;SDS011;17710;52.520;13.352;2023-08-07T12:01:52;5.28;;;1.73;;
31043;SDS011;17710;52.520;13.352;2023-08-07T12:04:18;15.52;;;2.10;;
31043;SDS011;17710;52.520;13.352;2023-08-07T12:06:52;4.35;;;1.70;;
31043;SDS011;17710;52.520;13.352;2023-08-07T12:09:19;6.90;;;2.10;;
31043;SDS011;17710;52.520;13.352;2023-08-07T12:11:47;11.32;;;7.97;;
31043;SDS011;17710;52.520;13.352;2023-08-07T12:14:13;6.30;;;1.77;;
31043;SDS011;17710;52.520;13.352;2023-08-07T12:16:43;3.25;;;1.33;;
31043;SDS011;17710;52.520;13.352;2023-08-07T12:19:11;4.82;;;1.60;;
31043;SDS011;17710;52.520;13.352;2023-08-07T12:21:38;7.55;;;1.98;;
31043;SDS011;17710;52.520;13.352;2023-08-07T12:24:04;9.98;;;1.77;;
31043;SDS011;17710;52.520;13.352;2023-08-07T12:26:32;5.75;;;1.52;;
31043;SDS011;17710;52.520;13.352;2023-08-07T12:29:00;5.00;;;1.40;;
31043;SDS011;17710;52.520;13.352;2023-08-07T12:31:26;5.60;;;1.38;;
31043;SDS011;17710;52.520;13.352;2023-08-07T12:33:53;6.30;;;1.38;;
31043;SDS011;17710;52.520;13.352;2023-08-07T12:36:19;8.23;;;1.70;;
31043;SDS011;17710;52.520;13.352;2023-08-07T12:38:45;10.57;;;2.38;;
31043;SDS011;17710;52.520;13.352;2023-08-07T12:41:12;6.05;;;1.77;;
31043;SDS011;17710;52.520;13.352;2023-08-07T12:43:39;6.65;;;1.90;;
31043;SDS011;17710;52.520;13.352;2023-08-07T12:46:06;11.73;;;1.70;;
31043;SDS011;17710;52.520;13.352;2023-08-07T12:48:33;8.13;;;2.15;;
31043;SDS011;17710;52.520;13.352;2023-08-07T12:50:59;5.93;;;2.30;;
31043;SDS011;17710;52.520;13.352;2023-08-07T12:53:25;9.35;;;2.95;;
31043;SDS011;17710;52.520;13.352;2023-08-07T12:55:54;9.10;;;2.10;;
31043;SDS011;17710;52.520;13.352;2023-08-07T12:58:20;4.38;;;1.98;;
31043;SDS011;17710;52.520;13.352;2023-08-07T13:00:50;8.38;;;1.77;;
31043;SDS011;17710;52.520;13.352;2023-08-07T13:03:18;9.93;;;2.22;;
31043;SDS011;17710;52.520;13.352;2023-08-07T13:05:44;11.05;;;2.10;;
31043;SDS011;17710;52.520;13.352;2023-08-07T13:08:10;6.18;;;1.70;;
31043;SDS011;17710;52.520;13.352;2023-08-07T13:10:37;11.18;;;1.95;;
31043;SDS011;17710;52.520;13.352;2023-08-07T13:13:04;4.07;;;1.83;;
31043;SDS011;17710;52.520;13.352;2023-08-07T13:15:30;11.73;;;2.47;;
31043;SDS011;17710;52.520;13.352;2023-08-07T13:17:57;7.10;;;1.83;;
31043;SDS011;17710;52.520;13.352;2023-08-07T13:20:24;6.13;;;1.88;;
31043;SDS011;17710;52.520;13.352;2023-08-07T13:22:51;9.32;;;2.10;;
31043;SDS011;17710;52.520;13.352;2023-08-07T13:25:18;7.35;;;1.70;;
31043;SDS011;17710;52.520;13.352;2023-08-07T13:27:44;6.28;;;1.77;;
31043;SDS011;17710;52.520;13.352;2023-08-07T13:30:11;5.00;;;1.60;;
31043;SDS011;17710;52.520;13.352;2023-08-07T13:32:37;7.95;;;1.50;;
31043;SDS011;17710;52.520;13.352;2023-08-07T13:35:04;12.40;;;1.95;;
31043;SDS011;17710;52.520;13.352;2023-08-07T13:37:32;5.57;;;1.65;;
31043;SDS011;17710;52.520;13.352;2023-08-07T13:39:59;11.07;;;1.88;;
31043;SDS011;17710;52.520;13.352;2023-08-07T13:42:25;5.82;;;1.55;;
31043;SDS011;17710;52.520;13.352;2023-08-07T13:44:52;9.63;;;2.80;;
31043;SDS011;17710;52.520;13.352;2023-08-07T13:47:19;8.50;;;1.83;;
31043;SDS011;17710;52.520;13.352;2023-08-07T13:49:46;10.50;;;1.85;;
31043;SDS011;17710;52.520;13.352;2023-08-07T13:52:13;4.20;;;1.60;;
31043;SDS011;17710;52.520;13.352;2023-08-07T13:54:41;7.90;;;1.90;;
31043;SDS011;17710;52.520;13.352;2023-08-07T13:57:07;5.75;;;1.80;;
31043;SDS011;17710;52.520;13.352;2023-08-07T13:59:33;9.70;;;1.95;;
31043;SDS011;17710;52.520;13.352;2023-08-07T14:02:00;9.27;;;1.95;;
31043;SDS011;17710;52.520;13.352;2023-08-07T14:04:26;9.38;;;1.88;;
31043;SDS011;17710;52.520;13.352;2023-08-07T14:06:52;8.10;;;2.33;;
31043;SDS011;17710;52.520;13.352;2023-08-07T14:09:19;8.55;;;1.92;;
31043;SDS011;17710;52.520;13.352;2023-08-07T14:11:48;10.90;;;2.20;;
31043;SDS011;17710;52.520;13.352;2023-08-07T14:14:14;11.20;;;1.90;;
31043;SDS011;17710;52.520;13.352;2023-08-07T14:16:41;10.25;;;2.30;;
31043;SDS011;17710;52.520;13.352;2023-08-07T14:19:07;10.52;;;2.17;;
31043;SDS011;17710;52.520;13.352;2023-08-07T14:21:34;9.85;;;2.10;;
31043;SDS011;17710;52.520;13.352;2023-08-07T14:24:00;7.28;;;1.85;;
31043;SDS011;17710;52.520;13.352;2023-08-07T14:26:26;9.52;;;2.50;;
31043;SDS011;17710;52.520;13.352;2023-08-07T14:28:54;5.13;;;1.67;;
31043;SDS011;17710;52.520;13.352;2023-08-07T14:31:21;6.18;;;1.80;;